createdAt,value
2023-08-15T00:01:06.401Z,4.77
2023-08-15T00:04:09.021Z,4.65
2023-08-15T00:07:11.649Z,4.40
2023-08-15T00:10:14.057Z,4.70
2023-08-15T00:13:16.731Z,4.85
2023-08-15T00:16:19.199Z,4.20
2023-08-15T00:19:21.600Z,4.80
2023-08-15T00:22:24.005Z,4.57
2023-08-15T00:25:26.446Z,4.80
2023-08-15T00:28:28.856Z,4.47
2023-08-15T00:31:31.256Z,4.73
2023-08-15T00:34:33.643Z,4.72
2023-08-15T00:37:36.109Z,4.47
2023-08-15T00:40:41.667Z,5.22
2023-08-15T00:43:44.015Z,4.78
2023-08-15T00:46:48.649Z,4.90
2023-08-15T00:49:52.965Z,5.13
2023-08-15T00:52:55.665Z,4.90
2023-08-15T00:55:59.243Z,4.70
2023-08-15T00:59:02.230Z,4.82
2023-08-15T01:02:05.255Z,5.10
2023-08-15T01:05:08.405Z,5.00
2023-08-15T01:08:10.830Z,5.30
2023-08-15T01:11:14.161Z,5.60
2023-08-15T01:14:20.468Z,5.30
2023-08-15T01:17:34.538Z,5.47
2023-08-15T01:20:38.400Z,5.60
2023-08-15T01:23:44.715Z,5.70
2023-08-15T01:26:47.309Z,5.35
2023-08-15T01:29:50.658Z,6.32
2023-08-15T01:33:02.980Z,6.40
2023-08-15T01:36:19.932Z,6.07
2023-08-15T01:39:27.103Z,5.75
2023-08-15T01:42:32.773Z,6.00
2023-08-15T01:45:36.169Z,5.43
2023-08-15T01:48:42.791Z,5.43
2023-08-15T01:51:47.254Z,6.40
2023-08-15T01:54:49.650Z,6.73
2023-08-15T01:57:53.287Z,5.47
2023-08-15T02:00:55.990Z,5.70
2023-08-15T02:03:58.382Z,5.60
2023-08-15T02:07:00.800Z,5.88
2023-08-15T02:10:03.525Z,5.13
2023-08-15T02:13:05.886Z,5.60
2023-08-15T02:16:08.386Z,5.50
2023-08-15T02:19:11.026Z,5.22
2023-08-15T02:22:13.429Z,5.60
2023-08-15T02:25:15.895Z,6.07
2023-08-15T02:28:18.363Z,6.25
2023-08-15T02:31:20.783Z,6.22
2023-08-15T02:34:23.187Z,5.87
2023-08-15T02:37:25.696Z,6.00
2023-08-15T02:40:29.434Z,6.03
2023-08-15T02:43:31.843Z,5.53
2023-08-15T02:46:35.564Z,6.70
2023-08-15T02:49:39.775Z,6.60
2023-08-15T02:52:42.325Z,6.85
2023-08-15T02:55:44.770Z,6.17
2023-08-15T02:58:47.277Z,6.65
2023-08-15T03:01:49.754Z,6.50
2023-08-15T03:04:52.194Z,6.77
2023-08-15T03:07:54.592Z,6.25
2023-08-15T03:10:57.666Z,7.03
2023-08-15T03:14:00.085Z,6.72
2023-08-15T03:17:03.939Z,8.00
2023-08-15T03:20:07.336Z,6.88
2023-08-15T03:23:10.028Z,6.70
2023-08-15T03:26:13.431Z,6.77
2023-08-15T03:29:16.354Z,6.57
2023-08-15T03:32:18.787Z,7.70
2023-08-15T03:35:22.885Z,7.53
2023-08-15T03:38:25.597Z,6.70
2023-08-15T03:41:28.507Z,6.68
2023-08-15T03:44:30.861Z,6.88
2023-08-15T03:47:33.392Z,7.43
2023-08-15T03:50:39.700Z,7.22
2023-08-15T03:53:44.250Z,7.88
2023-08-15T03:56:46.689Z,7.33
2023-08-15T03:59:49.058Z,6.78
2023-08-15T04:02:51.780Z,7.32
2023-08-15T04:05:54.296Z,7.17
2023-08-15T04:08:56.806Z,6.50
2023-08-15T04:11:59.211Z,7.95
2023-08-15T04:15:01.692Z,7.30
2023-08-15T04:18:06.651Z,6.80
2023-08-15T04:21:11.476Z,7.43
2023-08-15T04:24:14.138Z,6.93
2023-08-15T04:27:16.548Z,7.27
2023-08-15T04:30:19.419Z,7.32
2023-08-15T04:33:21.878Z,6.55
2023-08-15T04:36:24.478Z,6.10
2023-08-15T04:39:28.379Z,6.03
2023-08-15T04:42:30.825Z,6.22
2023-08-15T04:45:33.450Z,5.93
2023-08-15T04:48:35.873Z,6.80
2023-08-15T04:51:38.329Z,6.25
2023-08-15T04:54:41.666Z,6.28
2023-08-15T04:57:44.907Z,5.70
2023-08-15T05:00:47.413Z,5.75
2023-08-15T05:03:49.802Z,6.40
2023-08-15T05:06:52.179Z,6.03
2023-08-15T05:09:54.543Z,6.20
2023-08-15T05:13:00.349Z,5.03
2023-08-15T05:16:03.250Z,5.70
2023-08-15T05:19:05.743Z,5.05
2023-08-15T05:22:08.416Z,5.25
2023-08-15T05:25:11.297Z,4.88
2023-08-15T05:28:20.138Z,4.80
2023-08-15T05:31:22.644Z,5.55
2023-08-15T05:34:25.060Z,4.65
2023-08-15T05:37:27.422Z,5.20
2023-08-15T05:40:31.240Z,5.57
2023-08-15T05:43:33.895Z,6.15
2023-08-15T05:46:36.251Z,5.75
2023-08-15T05:49:38.785Z,5.78
2023-08-15T05:52:41.195Z,5.45
2023-08-15T05:55:46.730Z,5.35
2023-08-15T05:58:49.222Z,5.60
2023-08-15T06:01:51.617Z,5.10
2023-08-15T06:04:54.563Z,5.28
2023-08-15T06:07:56.906Z,4.93
2023-08-15T06:10:59.262Z,5.25
2023-08-15T06:14:01.674Z,5.00
2023-08-15T06:17:05.308Z,4.82
2023-08-15T06:20:08.073Z,5.13
2023-08-15T06:23:10.872Z,5.05
2023-08-15T06:26:13.437Z,5.20
2023-08-15T06:29:15.859Z,4.77
2023-08-15T06:32:28.455Z,5.25
2023-08-15T06:35:31.486Z,4.97
2023-08-15T06:38:33.866Z,4.63
2023-08-15T06:41:36.258Z,4.88
2023-08-15T06:44:39.607Z,4.97
2023-08-15T06:47:41.955Z,4.88
2023-08-15T06:50:46.183Z,5.07
2023-08-15T06:53:54.126Z,4.40
2023-08-15T06:56:56.585Z,4.93
2023-08-15T06:59:59.003Z,4.00
2023-08-15T07:03:01.506Z,5.20
2023-08-15T07:06:05.396Z,4.57
2023-08-15T07:09:08.014Z,4.00
2023-08-15T07:12:11.117Z,4.45
2023-08-15T07:15:13.469Z,4.85
2023-08-15T07:18:15.838Z,5.07
2023-08-15T07:21:18.208Z,4.72
2023-08-15T07:24:20.758Z,4.68
2023-08-15T07:27:23.176Z,4.55
2023-08-15T07:30:25.633Z,4.60
2023-08-15T07:33:28.390Z,4.50
2023-08-15T07:36:31.014Z,4.97
2023-08-15T07:39:33.482Z,4.50
2023-08-15T07:42:36.363Z,4.73
2023-08-15T07:45:38.776Z,4.60
2023-08-15T07:48:41.311Z,4.00
2023-08-15T07:51:43.702Z,3.72
2023-08-15T07:54:46.732Z,4.17
2023-08-15T07:57:49.169Z,4.47
2023-08-15T08:00:51.523Z,4.45
2023-08-15T08:03:53.879Z,4.43
2023-08-15T08:06:56.326Z,4.35
2023-08-15T08:10:00.434Z,3.80
2023-08-15T08:13:02.934Z,3.90
2023-08-15T08:16:05.919Z,4.18
2023-08-15T08:19:08.383Z,4.35
2023-08-15T08:22:10.751Z,4.40
2023-08-15T08:25:31.001Z,4.83
2023-08-15T08:28:33.647Z,5.38
2023-08-15T08:31:36.109Z,4.18
2023-08-15T08:34:38.549Z,4.75
2023-08-15T08:37:40.970Z,3.50
2023-08-15T08:40:43.439Z,4.20
2023-08-15T08:43:45.967Z,4.50
2023-08-15T08:46:48.442Z,4.55
2023-08-15T08:49:53.707Z,3.87
2023-08-15T08:52:56.457Z,4.25
2023-08-15T08:55:59.146Z,4.80
2023-08-15T08:59:06.486Z,3.70
2023-08-15T09:02:14.894Z,4.40
2023-08-15T09:05:17.874Z,3.37
2023-08-15T09:08:20.251Z,4.40
2023-08-15T09:11:22.615Z,4.00
2023-08-15T09:14:25.023Z,4.20
2023-08-15T09:17:28.149Z,3.67
2023-08-15T09:20:30.620Z,3.83
2023-08-15T09:23:33.166Z,4.30
2023-08-15T09:26:36.573Z,3.60
2023-08-15T09:29:39.001Z,4.23
2023-08-15T09:32:45.963Z,4.27
2023-08-15T09:35:57.964Z,3.85
2023-08-15T09:39:01.393Z,3.33
2023-08-15T09:42:03.959Z,3.40
2023-08-15T09:45:08.565Z,3.77
2023-08-15T09:48:11.446Z,3.85
2023-08-15T09:51:17.052Z,3.95
2023-08-15T09:54:20.133Z,4.03
2023-08-15T09:57:22.918Z,3.40
2023-08-15T10:00:25.604Z,3.13
2023-08-15T10:03:34.898Z,3.80
2023-08-15T10:06:37.805Z,3.67
2023-08-15T10:09:41.318Z,3.40
2023-08-15T10:12:46.822Z,4.05
2023-08-15T10:15:51.021Z,4.32
2023-08-15T10:18:55.574Z,4.20
2023-08-15T10:21:57.971Z,4.10
2023-08-15T10:25:29.376Z,3.60
2023-08-15T10:28:35.283Z,4.07
2023-08-15T10:31:40.209Z,3.40
2023-08-15T10:34:42.673Z,3.73
2023-08-15T10:37:47.953Z,4.00
2023-08-15T10:40:53.075Z,3.75
2023-08-15T10:43:56.942Z,3.90
2023-08-15T10:46:59.475Z,3.63
2023-08-15T10:50:02.090Z,3.63
2023-08-15T10:53:06.757Z,3.92
2023-08-15T10:56:10.660Z,3.92
2023-08-15T10:59:16.963Z,3.77
2023-08-15T11:02:19.531Z,3.73
2023-08-15T11:05:22.443Z,4.30
2023-08-15T11:08:24.832Z,3.90
2023-08-15T11:11:27.182Z,4.35
2023-08-15T11:14:29.765Z,3.77
2023-08-15T11:17:32.166Z,3.53
2023-08-15T11:20:34.987Z,4.63
2023-08-15T11:23:37.930Z,4.43
2023-08-15T11:26:44.058Z,4.17
2023-08-15T11:29:57.257Z,5.03
2023-08-15T11:32:59.853Z,4.60
2023-08-15T11:36:07.634Z,4.82
2023-08-15T11:39:14.079Z,4.40
2023-08-15T11:42:16.891Z,5.00
2023-08-15T11:45:22.480Z,4.68
2023-08-15T11:48:24.966Z,5.47
2023-08-15T11:51:27.425Z,4.60
2023-08-15T11:54:29.826Z,5.03
2023-08-15T11:57:38.489Z,4.30
2023-08-15T12:00:41.002Z,4.45
2023-08-15T12:03:43.523Z,4.07
2023-08-15T12:06:46.463Z,4.28
2023-08-15T12:09:49.060Z,4.88
2023-08-15T12:12:52.729Z,4.60
2023-08-15T12:15:55.089Z,4.57
2023-08-15T12:18:58.296Z,4.85
2023-08-15T12:22:00.653Z,4.65
2023-08-15T12:25:03.047Z,5.13
2023-08-15T12:28:06.118Z,4.80
2023-08-15T12:31:08.475Z,5.30
2023-08-15T12:34:10.930Z,4.68
2023-08-15T12:37:13.346Z,4.53
2023-08-15T12:40:30.054Z,4.40
2023-08-15T12:43:33.442Z,4.22
2023-08-15T12:46:35.858Z,4.38
2023-08-15T12:49:39.739Z,3.70
2023-08-15T12:52:42.150Z,3.88
2023-08-15T12:55:46.479Z,3.97
2023-08-15T12:58:48.982Z,4.38
2023-08-15T13:01:51.405Z,3.83
2023-08-15T13:04:53.904Z,4.17
2023-08-15T13:07:56.420Z,3.45
2023-08-15T13:10:58.829Z,4.05
2023-08-15T13:14:02.265Z,4.00
2023-08-15T13:17:05.374Z,4.40
2023-08-15T13:20:08.507Z,4.03
2023-08-15T13:23:11.237Z,3.95
2023-08-15T13:26:14.348Z,3.78
2023-08-15T13:29:16.742Z,4.07
2023-08-15T13:32:19.094Z,4.40
2023-08-15T13:35:21.484Z,4.10
2023-08-15T13:38:24.185Z,3.83
2023-08-15T13:41:26.729Z,4.03
2023-08-15T13:44:29.076Z,3.47
2023-08-15T13:47:31.508Z,4.18
2023-08-15T13:50:34.182Z,3.42
2023-08-15T13:53:36.558Z,3.30
2023-08-15T13:56:39.429Z,2.85
2023-08-15T13:59:42.151Z,3.47
2023-08-15T14:02:44.808Z,3.47
2023-08-15T14:05:47.374Z,3.33
2023-08-15T14:08:49.772Z,3.50
2023-08-15T14:11:52.163Z,3.90
2023-08-15T14:14:54.601Z,3.00
2023-08-15T14:17:57.046Z,3.50
2023-08-15T14:20:59.453Z,3.47
2023-08-15T14:24:03.746Z,3.30
2023-08-15T14:27:06.295Z,3.67
2023-08-15T14:30:09.418Z,3.63
2023-08-15T14:33:13.269Z,3.80
2023-08-15T14:36:15.732Z,3.35
2023-08-15T14:39:18.233Z,3.67
2023-08-15T14:42:21.069Z,3.35
2023-08-15T14:45:23.724Z,3.33
2023-08-15T14:48:26.273Z,4.03
2023-08-15T14:51:29.096Z,3.40
2023-08-15T14:54:31.538Z,3.10
2023-08-15T14:57:33.918Z,3.25
2023-08-15T15:00:36.467Z,3.75
2023-08-15T15:03:39.092Z,3.38
2023-08-15T15:06:41.756Z,3.70
2023-08-15T15:09:44.203Z,4.13
2023-08-15T15:12:48.140Z,3.60
2023-08-15T15:15:54.301Z,3.70
2023-08-15T15:18:57.171Z,3.50
2023-08-15T15:22:00.647Z,4.43
2023-08-15T15:25:03.105Z,2.73
2023-08-15T15:28:05.985Z,3.85
2023-08-15T15:31:08.383Z,3.28
2023-08-15T15:34:10.828Z,4.00
2023-08-15T15:37:13.203Z,3.40
2023-08-15T15:40:15.637Z,3.50
2023-08-15T15:43:18.089Z,3.85
2023-08-15T15:46:20.563Z,3.70
2023-08-15T15:49:23.498Z,3.40
2023-08-15T15:52:25.953Z,4.10
2023-08-15T15:55:28.387Z,3.67
2023-08-15T15:58:30.748Z,3.55
2023-08-15T16:01:33.197Z,3.33
2023-08-15T16:04:35.690Z,3.90
2023-08-15T16:07:38.270Z,3.70
2023-08-15T16:10:40.659Z,3.72
2023-08-15T16:13:42.993Z,3.70
2023-08-15T16:16:45.420Z,3.65
2023-08-15T16:19:47.805Z,3.60
2023-08-15T16:22:50.222Z,3.45
2023-08-15T16:25:52.579Z,3.47
2023-08-15T16:28:54.964Z,3.70
2023-08-15T16:31:58.510Z,3.60
2023-08-15T16:35:00.898Z,4.27
2023-08-15T16:38:03.374Z,4.10
2023-08-15T16:41:06.494Z,3.67
2023-08-15T16:44:08.930Z,4.53
2023-08-15T16:47:11.321Z,3.80
2023-08-15T16:50:13.757Z,4.25
2023-08-15T16:53:17.593Z,3.67
2023-08-15T16:56:19.996Z,4.10
2023-08-15T16:59:22.447Z,4.18
2023-08-15T17:02:25.256Z,4.18
2023-08-15T17:05:27.986Z,4.20
2023-08-15T17:08:30.388Z,4.20
2023-08-15T17:11:32.789Z,5.72
2023-08-15T17:14:35.192Z,5.97
2023-08-15T17:17:37.741Z,6.22
2023-08-15T17:20:40.167Z,6.25
2023-08-15T17:23:43.129Z,5.82
2023-08-15T17:26:45.488Z,5.80
2023-08-15T17:29:48.042Z,4.88
2023-08-15T17:32:50.417Z,4.00
2023-08-15T17:35:52.826Z,4.20
2023-08-15T17:38:55.210Z,4.78
2023-08-15T17:41:57.646Z,3.95
2023-08-15T17:45:00.297Z,4.10
2023-08-15T17:48:02.703Z,4.10
2023-08-15T17:51:05.122Z,3.92
2023-08-15T17:54:09.300Z,3.83
2023-08-15T17:57:11.628Z,5.00
2023-08-15T18:00:14.605Z,5.50
2023-08-15T18:03:17.006Z,4.15
2023-08-15T18:06:19.764Z,4.03
2023-08-15T18:09:25.426Z,4.30
2023-08-15T18:12:30.650Z,3.88
2023-08-15T18:15:33.074Z,4.32
2023-08-15T18:18:35.923Z,4.32
2023-08-15T18:21:38.315Z,4.05
2023-08-15T18:24:40.822Z,4.38
2023-08-15T18:27:43.204Z,4.10
2023-08-15T18:30:45.694Z,4.00
2023-08-15T18:33:48.073Z,5.07
2023-08-15T18:36:50.475Z,4.77
2023-08-15T18:39:52.827Z,4.60
2023-08-15T18:42:55.194Z,4.60
2023-08-15T18:45:57.692Z,5.35
2023-08-15T18:49:00.179Z,5.15
2023-08-15T18:52:02.744Z,4.93
2023-08-15T18:55:05.652Z,4.72
2023-08-15T18:58:08.946Z,4.47
2023-08-15T19:01:11.368Z,5.20
2023-08-15T19:04:13.728Z,4.50
2023-08-15T19:07:16.330Z,5.13
2023-08-15T19:10:18.699Z,4.60
2023-08-15T19:13:22.832Z,3.97
2023-08-15T19:16:25.396Z,5.50
2023-08-15T19:19:27.924Z,4.65
2023-08-15T19:22:30.298Z,4.40
2023-08-15T19:25:32.806Z,4.72
2023-08-15T19:28:35.242Z,4.63
2023-08-15T19:31:38.258Z,4.15
2023-08-15T19:34:49.878Z,4.88
2023-08-15T19:37:52.302Z,4.93
2023-08-15T19:40:54.634Z,4.72
2023-08-15T19:43:59.534Z,5.28
2023-08-15T19:47:02.205Z,4.82
2023-08-15T19:50:05.556Z,4.60
2023-08-15T19:53:07.960Z,4.70
2023-08-15T19:56:10.486Z,4.50
2023-08-15T19:59:12.870Z,4.57
2023-08-15T20:02:15.233Z,4.15
2023-08-15T20:05:18.853Z,4.13
2023-08-15T20:08:21.238Z,4.77
2023-08-15T20:11:23.601Z,4.60
2023-08-15T20:14:28.733Z,4.55
2023-08-15T20:17:31.338Z,5.00
2023-08-15T20:20:33.810Z,4.95
2023-08-15T20:23:36.213Z,5.00
2023-08-15T20:26:38.556Z,5.05
2023-08-15T20:29:44.593Z,4.60
2023-08-15T20:32:47.044Z,4.60
2023-08-15T20:35:49.483Z,5.07
2023-08-15T20:38:51.899Z,5.37
2023-08-15T20:41:54.608Z,5.22
2023-08-15T20:44:56.994Z,5.45
2023-08-15T20:47:59.433Z,4.65
2023-08-15T20:51:01.887Z,5.18
2023-08-15T20:54:04.608Z,5.55
2023-08-15T20:57:06.959Z,5.20
2023-08-15T21:00:10.865Z,4.90
2023-08-15T21:03:13.712Z,5.75
2023-08-15T21:06:16.415Z,5.97
2023-08-15T21:09:19.366Z,7.40
2023-08-15T21:12:22.114Z,6.28
2023-08-15T21:15:24.789Z,5.95
2023-08-15T21:18:27.217Z,6.65
2023-08-15T21:21:29.586Z,6.47
2023-08-15T21:24:32.002Z,6.43
2023-08-15T21:27:34.412Z,6.22
2023-08-15T21:30:38.031Z,5.97
2023-08-15T21:33:40.510Z,6.53
2023-08-15T21:36:42.893Z,6.55
2023-08-15T21:39:45.231Z,6.13
2023-08-15T21:42:47.771Z,6.53
2023-08-15T21:45:50.390Z,6.53
2023-08-15T21:48:52.975Z,5.97
2023-08-15T21:51:55.387Z,6.22
2023-08-15T21:54:57.794Z,6.55
2023-08-15T21:58:00.205Z,6.15
2023-08-15T22:01:03.548Z,5.87
2023-08-15T22:04:06.094Z,5.50
2023-08-15T22:07:08.458Z,5.43
2023-08-15T22:10:11.021Z,6.10
2023-08-15T22:13:13.419Z,5.65
2023-08-15T22:16:16.158Z,5.43
2023-08-15T22:19:18.637Z,5.32
2023-08-15T22:22:21.047Z,6.00
2023-08-15T22:25:23.852Z,5.53
2023-08-15T22:28:26.242Z,5.90
2023-08-15T22:31:28.971Z,5.20
2023-08-15T22:34:31.409Z,5.93
2023-08-15T22:37:33.965Z,5.65
2023-08-15T22:40:36.615Z,6.23
2023-08-15T22:43:39.124Z,5.47
2023-08-15T22:46:41.519Z,5.80
2023-08-15T22:49:43.900Z,5.57
2023-08-15T22:52:46.286Z,5.47
2023-08-15T22:55:48.706Z,5.32
2023-08-15T22:58:51.078Z,5.65
2023-08-15T23:01:53.482Z,6.00
2023-08-15T23:04:55.842Z,5.95
2023-08-15T23:07:58.174Z,6.15
2023-08-15T23:11:00.548Z,6.20
2023-08-15T23:14:02.899Z,6.20
2023-08-15T23:17:05.255Z,6.18
2023-08-15T23:20:09.321Z,6.25
2023-08-15T23:23:12.074Z,5.93
2023-08-15T23:26:14.506Z,6.90
2023-08-15T23:29:16.946Z,5.82
2023-08-15T23:32:19.314Z,6.07
2023-08-15T23:35:21.818Z,6.28
2023-08-15T23:38:24.223Z,6.40
2023-08-15T23:41:27.498Z,6.17
2023-08-15T23:44:29.914Z,6.38
2023-08-15T23:47:32.524Z,6.68
2023-08-15T23:50:34.916Z,6.20
2023-08-15T23:53:37.341Z,6.88
2023-08-15T23:56:39.779Z,6.95
2023-08-15T23:59:42.196Z,6.82
